Airfield :
LOGIN :

Register | Disclaimer

   EN    FR    IT 

 










Legend :    VFR   Marginal VFR   IFR   Intensive IFR   Very Intensive IFR
Visi :
Ceiling :
>= 8 km
>= 3000ft
5 to 8 km
1000 to 3000 ft
1500m to 5 km
500 to 1000 ft
800 to 1500m
200 to 500 ft
< 800m
< 200 ft
Symbols :   Thunderstorms  Fog  Heavy snow  Heavy precipitations  Wind > 20 kt
SIGMETs :     Misc.  Thunderstorms  Icing  Turbulence  Mountain Waves  Volcanic Ashes






- Airport Elevation : 330 ft
- IATA code : LVA


LFOV - Laval-Entrammes

CURRENT METAR :
  • 262130Z AUTO 20013KT 9000 -RA BKN010/// OVC016/// ///CB 10/09 Q1013

EXPIRED METARs :
  • 262100Z AUTO 19015KT 7000 -RA BKN008/// BKN014/// BKN023/// ///TCU 10/09 Q1013
  • 262030Z AUTO 19014KT 8000 -RA BKN010/// OVC014/// ///CB 10/09 Q1013
  • 262000Z AUTO 20014KT 9999 BKN012/// OVC017/// ///CB 10/09 Q1013
  • 261930Z AUTO 19013KT 9999 BKN013/// BKN020/// OVC052/// ///TCU 10/09 Q1013
  • 261900Z AUTO 19012KT 9999 BKN013 BKN018 BKN031 10/09 Q1013

TAF N/A



MET'MAP, your aeronautical weather chart ! - Copyright ORBIFLY December 2007 - Disclaimer

ORBIFLY MET'MAP TEAM :

Programming & Development : Alexandra Zaïnal
Concept & original design : Baudouin d'Aumeries
Assistance for programming : Marc-Olivier Méhu
Technical & hardware support : Manuel Goepfert

Contact : metmap@orbifly.com




SOURCES & CREDITS :

   NOAA